sensor_id;sensor_type;location;lat;lon;timestamp;temperature;humidity
52509;DHT22;38420;53.150;6.370;2024-01-30T00:01:13;6.80;99.90
52509;DHT22;38420;53.150;6.370;2024-01-30T00:03:39;6.70;99.90
52509;DHT22;38420;53.150;6.370;2024-01-30T00:06:04;6.80;99.90
52509;DHT22;38420;53.150;6.370;2024-01-30T00:08:30;6.30;99.90
52509;DHT22;38420;53.150;6.370;2024-01-30T00:10:56;6.20;99.90
52509;DHT22;38420;53.150;6.370;2024-01-30T00:13:21;6.20;99.90
52509;DHT22;38420;53.150;6.370;2024-01-30T00:15:48;6.60;99.90
52509;DHT22;38420;53.150;6.370;2024-01-30T00:18:14;6.10;99.90
52509;DHT22;38420;53.150;6.370;2024-01-30T00:20:40;6.30;99.90
52509;DHT22;38420;53.150;6.370;2024-01-30T00:23:05;6.60;99.90
52509;DHT22;38420;53.150;6.370;2024-01-30T00:25:31;6.50;99.90
52509;DHT22;38420;53.150;6.370;2024-01-30T00:27:58;5.90;99.90
52509;DHT22;38420;53.150;6.370;2024-01-30T00:30:24;5.90;99.90
52509;DHT22;38420;53.150;6.370;2024-01-30T00:32:49;5.70;99.90
52509;DHT22;38420;53.150;6.370;2024-01-30T00:35:15;6.20;99.90
52509;DHT22;38420;53.150;6.370;2024-01-30T00:37:41;5.70;99.90
52509;DHT22;38420;53.150;6.370;2024-01-30T00:40:07;6.40;99.90
52509;DHT22;38420;53.150;6.370;2024-01-30T00:42:33;6.50;99.90
52509;DHT22;38420;53.150;6.370;2024-01-30T00:44:59;6.10;99.90
52509;DHT22;38420;53.150;6.370;2024-01-30T00:47:24;6.40;99.90
52509;DHT22;38420;53.150;6.370;2024-01-30T00:49:50;5.90;99.90
52509;DHT22;38420;53.150;6.370;2024-01-30T00:52:15;6.40;99.90
52509;DHT22;38420;53.150;6.370;2024-01-30T00:54:41;6.30;99.90
52509;DHT22;38420;53.150;6.370;2024-01-30T00:57:07;6.50;99.90
52509;DHT22;38420;53.150;6.370;2024-01-30T00:59:33;6.20;99.90
52509;DHT22;38420;53.150;6.370;2024-01-30T01:01:58;5.80;99.90
52509;DHT22;38420;53.150;6.370;2024-01-30T01:04:24;5.80;99.90
52509;DHT22;38420;53.150;6.370;2024-01-30T01:06:52;6.50;99.90
52509;DHT22;38420;53.150;6.370;2024-01-30T01:09:17;5.70;99.90
52509;DHT22;38420;53.150;6.370;2024-01-30T01:11:43;6.00;99.90
52509;DHT22;38420;53.150;6.370;2024-01-30T01:14:09;5.70;99.90
52509;DHT22;38420;53.150;6.370;2024-01-30T01:16:35;6.60;99.90
52509;DHT22;38420;53.150;6.370;2024-01-30T01:19:00;6.40;99.90
52509;DHT22;38420;53.150;6.370;2024-01-30T01:21:26;5.80;99.90
52509;DHT22;38420;53.150;6.370;2024-01-30T01:23:52;6.60;99.90
52509;DHT22;38420;53.150;6.370;2024-01-30T01:26:17;5.70;99.90
52509;DHT22;38420;53.150;6.370;2024-01-30T01:28:43;6.20;99.90
52509;DHT22;38420;53.150;6.370;2024-01-30T01:31:09;6.70;99.90
52509;DHT22;38420;53.150;6.370;2024-01-30T01:33:34;6.60;99.90
52509;DHT22;38420;53.150;6.370;2024-01-30T01:36:02;6.50;99.90
52509;DHT22;38420;53.150;6.370;2024-01-30T01:38:28;6.50;99.90
52509;DHT22;38420;53.150;6.370;2024-01-30T01:40:54;6.50;99.90
52509;DHT22;38420;53.150;6.370;2024-01-30T01:43:20;5.70;99.90
52509;DHT22;38420;53.150;6.370;2024-01-30T01:45:45;5.70;99.90
52509;DHT22;38420;53.150;6.370;2024-01-30T01:48:11;5.90;99.90
52509;DHT22;38420;53.150;6.370;2024-01-30T01:50:38;6.30;99.90
52509;DHT22;38420;53.150;6.370;2024-01-30T01:53:07;5.70;99.90
52509;DHT22;38420;53.150;6.370;2024-01-30T01:55:33;5.80;99.90
52509;DHT22;38420;53.150;6.370;2024-01-30T01:58:00;6.50;99.90
52509;DHT22;38420;53.150;6.370;2024-01-30T02:00:25;5.80;99.90
52509;DHT22;38420;53.150;6.370;2024-01-30T02:02:51;5.80;99.90
52509;DHT22;38420;53.150;6.370;2024-01-30T02:05:19;5.80;99.90
52509;DHT22;38420;53.150;6.370;2024-01-30T02:07:46;6.70;99.90
52509;DHT22;38420;53.150;6.370;2024-01-30T02:10:12;6.70;99.90
52509;DHT22;38420;53.150;6.370;2024-01-30T02:12:37;5.90;99.90
52509;DHT22;38420;53.150;6.370;2024-01-30T02:15:04;5.80;99.90
52509;DHT22;38420;53.150;6.370;2024-01-30T02:17:30;6.70;99.90
52509;DHT22;38420;53.150;6.370;2024-01-30T02:19:56;6.70;99.90
52509;DHT22;38420;53.150;6.370;2024-01-30T02:22:22;6.10;99.90
52509;DHT22;38420;53.150;6.370;2024-01-30T02:24:48;6.50;99.90
52509;DHT22;38420;53.150;6.370;2024-01-30T02:27:14;5.90;99.90
52509;DHT22;38420;53.150;6.370;2024-01-30T02:29:40;6.50;99.90
52509;DHT22;38420;53.150;6.370;2024-01-30T02:32:05;6.40;99.90
52509;DHT22;38420;53.150;6.370;2024-01-30T02:34:31;6.00;99.90
52509;DHT22;38420;53.150;6.370;2024-01-30T02:36:57;6.70;99.90
52509;DHT22;38420;53.150;6.370;2024-01-30T02:39:23;5.90;99.90
52509;DHT22;38420;53.150;6.370;2024-01-30T02:41:48;5.90;99.90
52509;DHT22;38420;53.150;6.370;2024-01-30T02:44:14;5.90;99.90
52509;DHT22;38420;53.150;6.370;2024-01-30T02:46:39;5.90;99.90
52509;DHT22;38420;53.150;6.370;2024-01-30T02:49:05;5.90;99.90
52509;DHT22;38420;53.150;6.370;2024-01-30T02:51:30;6.60;99.90
52509;DHT22;38420;53.150;6.370;2024-01-30T02:53:56;6.20;99.90
52509;DHT22;38420;53.150;6.370;2024-01-30T02:56:22;6.10;99.90
52509;DHT22;38420;53.150;6.370;2024-01-30T02:58:47;6.70;99.90
52509;DHT22;38420;53.150;6.370;2024-01-30T03:01:13;5.90;99.90
52509;DHT22;38420;53.150;6.370;2024-01-30T03:03:38;6.10;99.90
52509;DHT22;38420;53.150;6.370;2024-01-30T03:06:06;6.00;99.90
52509;DHT22;38420;53.150;6.370;2024-01-30T03:08:32;6.00;99.90
52509;DHT22;38420;53.150;6.370;2024-01-30T03:10:58;6.60;99.90
52509;DHT22;38420;53.150;6.370;2024-01-30T03:13:23;6.50;99.90
52509;DHT22;38420;53.150;6.370;2024-01-30T03:15:50;6.30;99.90
52509;DHT22;38420;53.150;6.370;2024-01-30T03:18:16;6.70;99.90
52509;DHT22;38420;53.150;6.370;2024-01-30T03:20:41;6.00;99.90
52509;DHT22;38420;53.150;6.370;2024-01-30T03:23:07;6.70;99.90
52509;DHT22;38420;53.150;6.370;2024-01-30T03:25:32;6.60;99.90
52509;DHT22;38420;53.150;6.370;2024-01-30T03:27:58;6.80;99.90
52509;DHT22;38420;53.150;6.370;2024-01-30T03:30:24;6.50;99.90
52509;DHT22;38420;53.150;6.370;2024-01-30T03:32:49;6.80;99.90
52509;DHT22;38420;53.150;6.370;2024-01-30T03:35:15;6.10;99.90
52509;DHT22;38420;53.150;6.370;2024-01-30T03:37:41;7.00;99.90
52509;DHT22;38420;53.150;6.370;2024-01-30T03:40:07;7.00;99.90
52509;DHT22;38420;53.150;6.370;2024-01-30T03:42:32;6.60;99.90
52509;DHT22;38420;53.150;6.370;2024-01-30T03:44:58;6.90;99.90
52509;DHT22;38420;53.150;6.370;2024-01-30T03:47:24;6.40;99.90
52509;DHT22;38420;53.150;6.370;2024-01-30T03:49:49;6.30;99.90
52509;DHT22;38420;53.150;6.370;2024-01-30T03:52:15;6.40;99.90
52509;DHT22;38420;53.150;6.370;2024-01-30T03:54:41;7.10;99.90
52509;DHT22;38420;53.150;6.370;2024-01-30T03:57:06;7.20;99.90
52509;DHT22;38420;53.150;6.370;2024-01-30T03:59:32;6.90;99.90
52509;DHT22;38420;53.150;6.370;2024-01-30T04:01:57;6.50;99.90
52509;DHT22;38420;53.150;6.370;2024-01-30T04:04:23;6.40;99.90
52509;DHT22;38420;53.150;6.370;2024-01-30T04:06:49;6.60;99.90
52509;DHT22;38420;53.150;6.370;2024-01-30T04:09:14;6.90;99.90
52509;DHT22;38420;53.150;6.370;2024-01-30T04:11:40;6.90;99.90
52509;DHT22;38420;53.150;6.370;2024-01-30T04:14:06;7.20;99.90
52509;DHT22;38420;53.150;6.370;2024-01-30T04:16:31;7.30;99.90
52509;DHT22;38420;53.150;6.370;2024-01-30T04:18:58;6.70;99.90
52509;DHT22;38420;53.150;6.370;2024-01-30T04:21:23;7.00;99.90
52509;DHT22;38420;53.150;6.370;2024-01-30T04:23:50;7.20;99.90
52509;DHT22;38420;53.150;6.370;2024-01-30T04:26:16;6.50;99.90
52509;DHT22;38420;53.150;6.370;2024-01-30T04:28:43;7.20;99.90
52509;DHT22;38420;53.150;6.370;2024-01-30T04:31:09;6.50;99.90
52509;DHT22;38420;53.150;6.370;2024-01-30T04:33:35;7.20;99.90
52509;DHT22;38420;53.150;6.370;2024-01-30T04:36:00;7.10;99.90
52509;DHT22;38420;53.150;6.370;2024-01-30T04:38:26;6.50;99.90
52509;DHT22;38420;53.150;6.370;2024-01-30T04:40:52;6.40;99.90
52509;DHT22;38420;53.150;6.370;2024-01-30T04:43:17;7.20;99.90
52509;DHT22;38420;53.150;6.370;2024-01-30T04:45:44;6.50;99.90
52509;DHT22;38420;53.150;6.370;2024-01-30T04:48:10;7.10;99.90
52509;DHT22;38420;53.150;6.370;2024-01-30T04:50:35;6.40;99.90
52509;DHT22;38420;53.150;6.370;2024-01-30T04:53:01;6.30;99.90
52509;DHT22;38420;53.150;6.370;2024-01-30T04:55:27;6.50;99.90
52509;DHT22;38420;53.150;6.370;2024-01-30T04:57:52;6.60;99.90
52509;DHT22;38420;53.150;6.370;2024-01-30T05:00:18;7.20;99.90
52509;DHT22;38420;53.150;6.370;2024-01-30T05:02:44;6.90;99.90
52509;DHT22;38420;53.150;6.370;2024-01-30T05:05:09;7.20;99.90
52509;DHT22;38420;53.150;6.370;2024-01-30T05:07:36;7.20;99.90
52509;DHT22;38420;53.150;6.370;2024-01-30T05:10:02;6.60;99.90
52509;DHT22;38420;53.150;6.370;2024-01-30T05:12:28;6.50;99.90
52509;DHT22;38420;53.150;6.370;2024-01-30T05:14:54;6.70;99.90
52509;DHT22;38420;53.150;6.370;2024-01-30T05:17:20;7.30;99.90
52509;DHT22;38420;53.150;6.370;2024-01-30T05:19:45;6.60;99.90
52509;DHT22;38420;53.150;6.370;2024-01-30T05:22:11;6.60;99.90
52509;DHT22;38420;53.150;6.370;2024-01-30T05:24:41;6.70;99.90
52509;DHT22;38420;53.150;6.370;2024-01-30T05:27:07;6.70;99.90
52509;DHT22;38420;53.150;6.370;2024-01-30T05:29:33;6.70;99.90
52509;DHT22;38420;53.150;6.370;2024-01-30T05:31:59;6.70;99.90
52509;DHT22;38420;53.150;6.370;2024-01-30T05:34:24;6.70;99.90
52509;DHT22;38420;53.150;6.370;2024-01-30T05:36:50;7.40;99.90
52509;DHT22;38420;53.150;6.370;2024-01-30T05:39:15;6.90;99.90
52509;DHT22;38420;53.150;6.370;2024-01-30T05:41:41;6.80;99.90
52509;DHT22;38420;53.150;6.370;2024-01-30T05:44:07;7.50;99.90
52509;DHT22;38420;53.150;6.370;2024-01-30T05:46:33;6.80;99.90
52509;DHT22;38420;53.150;6.370;2024-01-30T05:48:59;7.30;99.90
52509;DHT22;38420;53.150;6.370;2024-01-30T05:51:24;6.90;99.90
52509;DHT22;38420;53.150;6.370;2024-01-30T05:53:50;7.40;99.90
52509;DHT22;38420;53.150;6.370;2024-01-30T05:56:15;7.30;99.90
52509;DHT22;38420;53.150;6.370;2024-01-30T05:58:41;7.00;99.90
52509;DHT22;38420;53.150;6.370;2024-01-30T06:01:08;7.40;99.90
52509;DHT22;38420;53.150;6.370;2024-01-30T06:03:34;6.90;99.90
52509;DHT22;38420;53.150;6.370;2024-01-30T06:06:00;7.50;99.90
52509;DHT22;38420;53.150;6.370;2024-01-30T06:08:25;7.50;99.90
52509;DHT22;38420;53.150;6.370;2024-01-30T06:10:51;7.30;99.90
52509;DHT22;38420;53.150;6.370;2024-01-30T06:13:17;6.90;99.90
52509;DHT22;38420;53.150;6.370;2024-01-30T06:15:43;6.90;99.90
52509;DHT22;38420;53.150;6.370;2024-01-30T06:18:08;7.20;99.90
52509;DHT22;38420;53.150;6.370;2024-01-30T06:20:34;7.60;99.90
52509;DHT22;38420;53.150;6.370;2024-01-30T06:23:00;7.60;99.90
52509;DHT22;38420;53.150;6.370;2024-01-30T06:25:26;7.70;99.90
52509;DHT22;38420;53.150;6.370;2024-01-30T06:27:51;7.70;99.90
52509;DHT22;38420;53.150;6.370;2024-01-30T06:30:17;7.80;99.90
52509;DHT22;38420;53.150;6.370;2024-01-30T06:32:43;7.20;99.90
52509;DHT22;38420;53.150;6.370;2024-01-30T06:35:09;7.30;99.90
52509;DHT22;38420;53.150;6.370;2024-01-30T06:37:36;7.70;99.90
52509;DHT22;38420;53.150;6.370;2024-01-30T06:40:01;7.70;99.90
52509;DHT22;38420;53.150;6.370;2024-01-30T06:42:27;7.80;99.90
52509;DHT22;38420;53.150;6.370;2024-01-30T06:44:53;7.70;99.90
52509;DHT22;38420;53.150;6.370;2024-01-30T06:47:18;7.80;99.90
52509;DHT22;38420;53.150;6.370;2024-01-30T06:49:44;7.20;99.90
52509;DHT22;38420;53.150;6.370;2024-01-30T06:52:10;7.60;99.90
52509;DHT22;38420;53.150;6.370;2024-01-30T06:54:36;7.70;99.90
52509;DHT22;38420;53.150;6.370;2024-01-30T06:57:02;7.40;99.90
52509;DHT22;38420;53.150;6.370;2024-01-30T06:59:28;7.80;99.90
52509;DHT22;38420;53.150;6.370;2024-01-30T07:01:54;7.80;99.90
52509;DHT22;38420;53.150;6.370;2024-01-30T07:04:19;7.80;99.90
52509;DHT22;38420;53.150;6.370;2024-01-30T07:06:45;7.20;99.90
52509;DHT22;38420;53.150;6.370;2024-01-30T07:09:11;7.50;99.90
52509;DHT22;38420;53.150;6.370;2024-01-30T07:11:37;7.50;99.90
52509;DHT22;38420;53.150;6.370;2024-01-30T07:14:02;7.40;99.90
52509;DHT22;38420;53.150;6.370;2024-01-30T07:16:31;7.80;99.90
52509;DHT22;38420;53.150;6.370;2024-01-30T07:18:57;7.70;99.90
52509;DHT22;38420;53.150;6.370;2024-01-30T07:21:22;7.30;99.90
52509;DHT22;38420;53.150;6.370;2024-01-30T07:23:53;7.30;99.90
52509;DHT22;38420;53.150;6.370;2024-01-30T07:26:19;7.30;99.90
52509;DHT22;38420;53.150;6.370;2024-01-30T07:28:45;7.40;99.90
52509;DHT22;38420;53.150;6.370;2024-01-30T07:31:10;7.90;99.90
52509;DHT22;38420;53.150;6.370;2024-01-30T07:33:36;7.90;99.90
52509;DHT22;38420;53.150;6.370;2024-01-30T07:36:02;7.40;99.90
52509;DHT22;38420;53.150;6.370;2024-01-30T07:38:28;7.90;99.90
52509;DHT22;38420;53.150;6.370;2024-01-30T07:40:56;7.90;99.90
52509;DHT22;38420;53.150;6.370;2024-01-30T07:43:22;7.40;99.90
52509;DHT22;38420;53.150;6.370;2024-01-30T07:45:48;7.30;99.90
52509;DHT22;38420;53.150;6.370;2024-01-30T07:48:13;9.20;99.90
52509;DHT22;38420;53.150;6.370;2024-01-30T07:50:39;7.80;99.90
52509;DHT22;38420;53.150;6.370;2024-01-30T07:53:05;8.00;99.90
52509;DHT22;38420;53.150;6.370;2024-01-30T07:55:30;8.00;99.90
52509;DHT22;38420;53.150;6.370;2024-01-30T07:57:58;8.00;99.90
52509;DHT22;38420;53.150;6.370;2024-01-30T08:00:26;7.60;99.90
52509;DHT22;38420;53.150;6.370;2024-01-30T08:02:54;8.10;99.90
52509;DHT22;38420;53.150;6.370;2024-01-30T08:05:21;7.50;99.90
52509;DHT22;38420;53.150;6.370;2024-01-30T08:07:48;7.40;99.90
52509;DHT22;38420;53.150;6.370;2024-01-30T08:10:14;7.90;99.90
52509;DHT22;38420;53.150;6.370;2024-01-30T08:12:40;7.70;99.90
52509;DHT22;38420;53.150;6.370;2024-01-30T08:15:06;7.30;99.90
52509;DHT22;38420;53.150;6.370;2024-01-30T08:17:32;8.00;99.90
52509;DHT22;38420;53.150;6.370;2024-01-30T08:19:58;7.40;99.90
52509;DHT22;38420;53.150;6.370;2024-01-30T08:22:24;7.70;99.90
52509;DHT22;38420;53.150;6.370;2024-01-30T08:24:49;7.90;99.90
52509;DHT22;38420;53.150;6.370;2024-01-30T08:27:15;7.40;99.90
52509;DHT22;38420;53.150;6.370;2024-01-30T08:29:40;7.50;99.90
52509;DHT22;38420;53.150;6.370;2024-01-30T08:32:06;7.70;99.90
52509;DHT22;38420;53.150;6.370;2024-01-30T08:34:32;7.70;99.90
52509;DHT22;38420;53.150;6.370;2024-01-30T08:36:58;8.00;99.90
52509;DHT22;38420;53.150;6.370;2024-01-30T08:39:24;7.90;99.90
52509;DHT22;38420;53.150;6.370;2024-01-30T08:41:50;7.70;99.90
52509;DHT22;38420;53.150;6.370;2024-01-30T08:44:16;7.70;99.90
52509;DHT22;38420;53.150;6.370;2024-01-30T08:46:43;8.20;99.90
52509;DHT22;38420;53.150;6.370;2024-01-30T08:49:09;8.40;99.90
52509;DHT22;38420;53.150;6.370;2024-01-30T08:51:34;8.00;99.90
52509;DHT22;38420;53.150;6.370;2024-01-30T08:54:00;7.90;99.90
52509;DHT22;38420;53.150;6.370;2024-01-30T08:56:25;8.00;99.90
52509;DHT22;38420;53.150;6.370;2024-01-30T08:58:51;8.60;99.90
52509;DHT22;38420;53.150;6.370;2024-01-30T09:01:16;8.10;99.90
52509;DHT22;38420;53.150;6.370;2024-01-30T09:03:42;8.70;99.90
52509;DHT22;38420;53.150;6.370;2024-01-30T09:06:11;8.40;99.90
52509;DHT22;38420;53.150;6.370;2024-01-30T09:08:37;8.50;99.90
52509;DHT22;38420;53.150;6.370;2024-01-30T09:11:12;8.70;99.90
52509;DHT22;38420;53.150;6.370;2024-01-30T09:13:38;8.90;99.90
52509;DHT22;38420;53.150;6.370;2024-01-30T09:16:04;9.00;99.90
52509;DHT22;38420;53.150;6.370;2024-01-30T09:18:30;8.50;99.90
52509;DHT22;38420;53.150;6.370;2024-01-30T09:20:56;9.10;99.90
52509;DHT22;38420;53.150;6.370;2024-01-30T09:23:21;9.00;99.90
52509;DHT22;38420;53.150;6.370;2024-01-30T09:25:47;8.80;99.90
52509;DHT22;38420;53.150;6.370;2024-01-30T09:28:13;8.80;99.90
52509;DHT22;38420;53.150;6.370;2024-01-30T09:30:38;9.10;99.90
52509;DHT22;38420;53.150;6.370;2024-01-30T09:33:05;9.50;99.90
52509;DHT22;38420;53.150;6.370;2024-01-30T09:35:30;8.90;99.90
52509;DHT22;38420;53.150;6.370;2024-01-30T09:37:56;9.50;99.90
52509;DHT22;38420;53.150;6.370;2024-01-30T09:40:23;9.10;99.90
52509;DHT22;38420;53.150;6.370;2024-01-30T09:42:50;9.20;99.90
52509;DHT22;38420;53.150;6.370;2024-01-30T09:45:18;9.50;99.90
52509;DHT22;38420;53.150;6.370;2024-01-30T09:47:45;9.10;99.90
52509;DHT22;38420;53.150;6.370;2024-01-30T09:50:12;9.30;99.90
52509;DHT22;38420;53.150;6.370;2024-01-30T09:52:39;9.30;99.90
52509;DHT22;38420;53.150;6.370;2024-01-30T09:55:06;9.60;99.90
52509;DHT22;38420;53.150;6.370;2024-01-30T09:57:31;9.60;99.90
52509;DHT22;38420;53.150;6.370;2024-01-30T09:59:57;9.30;99.90
52509;DHT22;38420;53.150;6.370;2024-01-30T10:02:23;9.80;99.90
52509;DHT22;38420;53.150;6.370;2024-01-30T10:04:50;9.30;99.90
52509;DHT22;38420;53.150;6.370;2024-01-30T10:07:16;9.30;99.90
52509;DHT22;38420;53.150;6.370;2024-01-30T10:09:42;9.30;99.90
52509;DHT22;38420;53.150;6.370;2024-01-30T10:12:09;9.40;99.90
52509;DHT22;38420;53.150;6.370;2024-01-30T10:14:41;9.60;99.90
52509;DHT22;38420;53.150;6.370;2024-01-30T10:17:10;10.60;99.90
52509;DHT22;38420;53.150;6.370;2024-01-30T10:19:41;9.90;99.90
52509;DHT22;38420;53.150;6.370;2024-01-30T10:22:07;9.40;99.90
52509;DHT22;38420;53.150;6.370;2024-01-30T10:24:36;9.40;99.90
52509;DHT22;38420;53.150;6.370;2024-01-30T10:27:02;9.40;99.90
52509;DHT22;38420;53.150;6.370;2024-01-30T10:29:28;9.50;99.90
52509;DHT22;38420;53.150;6.370;2024-01-30T10:32:04;9.50;99.90
52509;DHT22;38420;53.150;6.370;2024-01-30T10:34:31;9.90;99.90
52509;DHT22;38420;53.150;6.370;2024-01-30T10:37:03;10.10;99.90
52509;DHT22;38420;53.150;6.370;2024-01-30T10:39:32;10.00;99.90
52509;DHT22;38420;53.150;6.370;2024-01-30T10:42:04;10.20;99.90
52509;DHT22;38420;53.150;6.370;2024-01-30T10:44:37;10.30;99.90
52509;DHT22;38420;53.150;6.370;2024-01-30T10:47:08;10.30;99.90
52509;DHT22;38420;53.150;6.370;2024-01-30T10:49:37;9.90;99.90
52509;DHT22;38420;53.150;6.370;2024-01-30T10:52:05;10.10;99.90
52509;DHT22;38420;53.150;6.370;2024-01-30T10:54:31;9.90;99.90
52509;DHT22;38420;53.150;6.370;2024-01-30T10:57:00;10.50;99.90
52509;DHT22;38420;53.150;6.370;2024-01-30T10:59:28;10.50;99.90
52509;DHT22;38420;53.150;6.370;2024-01-30T11:01:54;10.40;99.90
52509;DHT22;38420;53.150;6.370;2024-01-30T11:04:19;10.80;99.90
52509;DHT22;38420;53.150;6.370;2024-01-30T11:06:49;10.40;99.90
52509;DHT22;38420;53.150;6.370;2024-01-30T11:09:17;10.50;99.90
52509;DHT22;38420;53.150;6.370;2024-01-30T11:11:50;10.20;99.90
52509;DHT22;38420;53.150;6.370;2024-01-30T11:14:22;10.50;99.90
52509;DHT22;38420;53.150;6.370;2024-01-30T11:16:49;10.20;99.90
52509;DHT22;38420;53.150;6.370;2024-01-30T11:19:14;10.40;99.90
52509;DHT22;38420;53.150;6.370;2024-01-30T11:21:43;10.50;99.90
52509;DHT22;38420;53.150;6.370;2024-01-30T11:24:09;10.10;99.90
52509;DHT22;38420;53.150;6.370;2024-01-30T11:26:34;10.40;99.90
52509;DHT22;38420;53.150;6.370;2024-01-30T11:29:03;10.00;99.90
52509;DHT22;38420;53.150;6.370;2024-01-30T11:31:32;10.20;99.90
52509;DHT22;38420;53.150;6.370;2024-01-30T11:33:58;10.10;99.90
52509;DHT22;38420;53.150;6.370;2024-01-30T11:36:25;10.20;99.90
52509;DHT22;38420;53.150;6.370;2024-01-30T11:38:52;10.00;99.90
52509;DHT22;38420;53.150;6.370;2024-01-30T11:41:18;10.10;99.90
52509;DHT22;38420;53.150;6.370;2024-01-30T11:43:51;9.80;99.90
52509;DHT22;38420;53.150;6.370;2024-01-30T11:46:17;10.20;99.90
52509;DHT22;38420;53.150;6.370;2024-01-30T11:48:42;10.10;99.90
52509;DHT22;38420;53.150;6.370;2024-01-30T11:51:08;9.80;99.90
52509;DHT22;38420;53.150;6.370;2024-01-30T11:53:34;9.80;99.90
52509;DHT22;38420;53.150;6.370;2024-01-30T11:55:59;9.70;99.90
52509;DHT22;38420;53.150;6.370;2024-01-30T11:58:25;9.90;99.90
52509;DHT22;38420;53.150;6.370;2024-01-30T12:00:57;9.70;99.90
52509;DHT22;38420;53.150;6.370;2024-01-30T12:03:23;9.60;99.90
52509;DHT22;38420;53.150;6.370;2024-01-30T12:05:55;9.60;99.90
52509;DHT22;38420;53.150;6.370;2024-01-30T12:08:22;9.60;99.90
52509;DHT22;38420;53.150;6.370;2024-01-30T12:10:55;9.70;99.90
52509;DHT22;38420;53.150;6.370;2024-01-30T12:13:22;9.80;99.90
52509;DHT22;38420;53.150;6.370;2024-01-30T12:15:47;9.70;99.90
52509;DHT22;38420;53.150;6.370;2024-01-30T12:18:13;9.60;99.90
52509;DHT22;38420;53.150;6.370;2024-01-30T12:20:39;9.50;99.90
52509;DHT22;38420;53.150;6.370;2024-01-30T12:23:04;9.60;99.90
52509;DHT22;38420;53.150;6.370;2024-01-30T12:25:30;9.80;99.90
52509;DHT22;38420;53.150;6.370;2024-01-30T12:27:56;9.70;99.90
52509;DHT22;38420;53.150;6.370;2024-01-30T12:30:22;9.70;99.90
52509;DHT22;38420;53.150;6.370;2024-01-30T12:32:50;9.50;99.90
52509;DHT22;38420;53.150;6.370;2024-01-30T12:35:17;9.70;99.90
52509;DHT22;38420;53.150;6.370;2024-01-30T12:37:44;9.70;99.90
52509;DHT22;38420;53.150;6.370;2024-01-30T12:40:11;9.70;99.90
52509;DHT22;38420;53.150;6.370;2024-01-30T12:42:43;9.40;99.90
52509;DHT22;38420;53.150;6.370;2024-01-30T12:45:11;9.70;99.90
52509;DHT22;38420;53.150;6.370;2024-01-30T12:47:37;9.60;99.90
52509;DHT22;38420;53.150;6.370;2024-01-30T12:50:03;9.80;99.90
52509;DHT22;38420;53.150;6.370;2024-01-30T12:52:29;9.50;99.90
52509;DHT22;38420;53.150;6.370;2024-01-30T12:54:55;9.80;99.90
52509;DHT22;38420;53.150;6.370;2024-01-30T12:57:20;9.80;99.90
52509;DHT22;38420;53.150;6.370;2024-01-30T12:59:46;9.70;99.90
52509;DHT22;38420;53.150;6.370;2024-01-30T13:02:13;9.80;99.90
52509;DHT22;38420;53.150;6.370;2024-01-30T13:04:39;9.70;99.90
52509;DHT22;38420;53.150;6.370;2024-01-30T13:07:04;9.60;99.90
52509;DHT22;38420;53.150;6.370;2024-01-30T13:09:30;9.50;99.90
52509;DHT22;38420;53.150;6.370;2024-01-30T13:11:59;9.40;99.90
52509;DHT22;38420;53.150;6.370;2024-01-30T13:14:25;9.50;99.90
52509;DHT22;38420;53.150;6.370;2024-01-30T13:16:51;9.50;99.90
52509;DHT22;38420;53.150;6.370;2024-01-30T13:19:17;9.40;99.90
52509;DHT22;38420;53.150;6.370;2024-01-30T13:21:43;9.80;99.90
52509;DHT22;38420;53.150;6.370;2024-01-30T13:24:08;9.40;99.90
52509;DHT22;38420;53.150;6.370;2024-01-30T13:26:34;9.70;99.90
52509;DHT22;38420;53.150;6.370;2024-01-30T13:29:00;9.20;99.90
52509;DHT22;38420;53.150;6.370;2024-01-30T13:31:26;9.60;99.90
52509;DHT22;38420;53.150;6.370;2024-01-30T13:33:53;9.60;99.90
52509;DHT22;38420;53.150;6.370;2024-01-30T13:36:18;9.60;99.90
52509;DHT22;38420;53.150;6.370;2024-01-30T13:38:44;9.60;99.90
52509;DHT22;38420;53.150;6.370;2024-01-30T13:41:10;9.60;99.90
52509;DHT22;38420;53.150;6.370;2024-01-30T13:43:35;9.40;99.90
52509;DHT22;38420;53.150;6.370;2024-01-30T13:46:01;9.60;99.90
52509;DHT22;38420;53.150;6.370;2024-01-30T13:48:27;9.60;99.90
52509;DHT22;38420;53.150;6.370;2024-01-30T13:50:53;9.50;99.90
52509;DHT22;38420;53.150;6.370;2024-01-30T13:53:18;9.20;99.90
52509;DHT22;38420;53.150;6.370;2024-01-30T13:55:44;9.10;99.90
52509;DHT22;38420;53.150;6.370;2024-01-30T13:58:10;9.50;99.90
52509;DHT22;38420;53.150;6.370;2024-01-30T14:00:36;9.50;99.90
52509;DHT22;38420;53.150;6.370;2024-01-30T14:03:10;9.00;99.90
52509;DHT22;38420;53.150;6.370;2024-01-30T14:05:39;8.90;99.90
52509;DHT22;38420;53.150;6.370;2024-01-30T14:08:06;9.30;99.90
52509;DHT22;38420;53.150;6.370;2024-01-30T14:10:32;9.10;99.90
52509;DHT22;38420;53.150;6.370;2024-01-30T14:12:58;9.30;99.90
52509;DHT22;38420;53.150;6.370;2024-01-30T14:15:24;9.20;99.90
52509;DHT22;38420;53.150;6.370;2024-01-30T14:17:49;8.50;99.90
52509;DHT22;38420;53.150;6.370;2024-01-30T14:20:15;9.10;99.90
52509;DHT22;38420;53.150;6.370;2024-01-30T14:22:44;9.10;99.90
52509;DHT22;38420;53.150;6.370;2024-01-30T14:25:10;8.30;99.90
52509;DHT22;38420;53.150;6.370;2024-01-30T14:27:36;8.40;99.90
52509;DHT22;38420;53.150;6.370;2024-01-30T14:30:02;8.80;99.90
52509;DHT22;38420;53.150;6.370;2024-01-30T14:32:28;8.20;99.90
52509;DHT22;38420;53.150;6.370;2024-01-30T14:34:54;8.80;99.90
52509;DHT22;38420;53.150;6.370;2024-01-30T14:37:23;8.10;99.90
52509;DHT22;38420;53.150;6.370;2024-01-30T14:39:48;8.80;99.90
52509;DHT22;38420;53.150;6.370;2024-01-30T14:42:14;8.90;99.90
52509;DHT22;38420;53.150;6.370;2024-01-30T14:44:41;8.90;99.90
52509;DHT22;38420;53.150;6.370;2024-01-30T14:47:06;8.80;99.90
52509;DHT22;38420;53.150;6.370;2024-01-30T14:49:32;8.00;99.90
52509;DHT22;38420;53.150;6.370;2024-01-30T14:51:58;8.30;99.90
52509;DHT22;38420;53.150;6.370;2024-01-30T14:54:29;8.00;99.90
52509;DHT22;38420;53.150;6.370;2024-01-30T14:56:55;8.00;99.90
52509;DHT22;38420;53.150;6.370;2024-01-30T14:59:21;8.80;99.90
52509;DHT22;38420;53.150;6.370;2024-01-30T15:01:47;8.10;99.90
52509;DHT22;38420;53.150;6.370;2024-01-30T15:04:13;8.00;99.90
52509;DHT22;38420;53.150;6.370;2024-01-30T15:06:39;8.00;99.90
52509;DHT22;38420;53.150;6.370;2024-01-30T15:09:11;8.90;99.90
52509;DHT22;38420;53.150;6.370;2024-01-30T15:11:36;8.90;99.90
52509;DHT22;38420;53.150;6.370;2024-01-30T15:14:02;8.30;99.90
52509;DHT22;38420;53.150;6.370;2024-01-30T15:16:28;8.00;99.90
52509;DHT22;38420;53.150;6.370;2024-01-30T15:18:53;8.80;99.90
52509;DHT22;38420;53.150;6.370;2024-01-30T15:21:19;8.00;99.90
52509;DHT22;38420;53.150;6.370;2024-01-30T15:23:48;8.60;99.90
52509;DHT22;38420;53.150;6.370;2024-01-30T15:26:14;8.00;99.90
52509;DHT22;38420;53.150;6.370;2024-01-30T15:28:40;8.90;99.90
52509;DHT22;38420;53.150;6.370;2024-01-30T15:31:06;9.20;99.90
52509;DHT22;38420;53.150;6.370;2024-01-30T15:33:32;8.70;99.90
52509;DHT22;38420;53.150;6.370;2024-01-30T15:35:59;8.10;99.90
52509;DHT22;38420;53.150;6.370;2024-01-30T15:38:25;8.80;99.90